NCAR-RAP Real-Time Weather Data

Output produced by METARs form (12 August 2020  18:32 UTC)
found at http://weather.rap.ucar.edu/surface/
 
KSAN 121751Z 28008KT 10SM FEW008 BKN220 22/16 A2994 RMK AO2 SLP137 T02220161 10222 20178 53007
KSAN 121651Z VRB06KT 10SM FEW007 BKN220 21/17 A2993 RMK AO2 SLP134 T02110167
KSAN 121605Z 30005KT 9SM SCT007 BKN200 19/16 A2992 RMK AO2 T01940161
KSAN 121551Z 31005KT 8SM BKN007 BKN200 19/16 A2992 RMK AO2 SLP133 CIG 006V008 T01940161
KSAN 121525Z VRB04KT 7SM OVC007 19/16 A2992 RMK AO2 CIG 005V008 T01890161
KSAN 121451Z 01006KT 7SM OVC005 18/16 A2992 RMK AO2 SLP130 CIG 004V006 T01830161 51010
KSAN 121437Z 04004KT 7SM OVC005 18/16 A2992 RMK AO2 CIG 004V006 T01830161
KSAN 121423Z 01003KT 7SM OVC004 18/16 A2991 RMK AO2 T01780161
KSAN 121351Z 36005KT 6SM BR OVC005 18/16 A2991 RMK AO2 SLP127 CIG 005V007 T01780156
KSAN 121251Z 01003KT 7SM OVC006 18/16 A2990 RMK AO2 SLP124 T01780161
KSAN 121228Z 31004KT 10SM OVC006 18/16 A2990 RMK AO2 T01780156
KSAN 121151Z 34006KT 10SM BKN008 18/16 A2989 RMK AO2 SLP120 T01780161 10189 20178 56003
KSAN 121126Z 36003KT 10SM BKN008 18/16 A2989 RMK AO2 T01780156
KSAN 121051Z 02004KT 10SM FEW008 18/16 A2989 RMK AO2 SLP121 T01780156
KSAN 120951Z 35003KT 10SM SCT009 18/16 A2989 RMK AO2 SLP121 SCT V BKN T01830161
KSAN 120918Z 01004KT 10SM SCT009 18/16 A2990 RMK AO2 T01830161
KSAN 120851Z 01004KT 10SM FEW013 18/16 A2990 RMK AO2 SLP123 T01830161 58007
KSAN 120751Z 35005KT 10SM FEW013 19/16 A2990 RMK AO2 SLP125 T01890161 402330189
KSAN 120651Z 35004KT 10SM FEW013 19/16 A2991 RMK AO2 SLP129 T01890161
KSAN 120551Z VRB03KT 10SM FEW013 19/16 A2992 RMK AO2 SLP130 T01890161 10228 20189 51009
KSAN 120451Z 35005KT 10SM FEW013 19/16 A2992 RMK AO2 SLP130 T01940161
KSAN 120351Z 33005KT 10SM FEW013 19/16 A2990 RMK AO2 SLP124 T01940161
KSAN 120251Z 33006KT 10SM FEW013 20/16 A2989 RMK AO2 SLP121 T02000161 53001
KSAN 120151Z 29009KT 10SM FEW013 FEW060 21/16 A2987 RMK AO2 SLP115 T02110161
KSAN 120051Z 30010KT 10SM FEW013 FEW150 22/16 A2987 RMK AO2 SLP116 T02170161
KSAN 112351Z 30009KT 10SM FEW013 FEW040 22/16 A2989 RMK AO2 SLP120 T02220156 10233 20211 56014
KSAN 112251Z 30009KT 10SM FEW013 FEW035 23/16 A2990 RMK AO2 SLP124 T02280156
KSAN 112151Z 29011KT 10SM FEW013 22/16 A2991 RMK AO2 SLP129 T02220156
KSAN 112051Z 29013KT 10SM FEW013 23/16 A2993 RMK AO2 SLP134 T02280156 58009
KSAN 111951Z 29010KT 10SM FEW013 22/16 A2994 RMK AO2 SLP137 T02220156
KSAN 111851Z 31010KT 10SM SCT012 22/16 A2995 RMK AO2 SLP141 T02170156
KSAN 111834Z 31008G17KT 10SM SCT012 22/16 A2995 RMK AO2 T02170156
KSAN 111751Z 30009KT 10SM BKN011 21/16 A2995 RMK AO2 SLP143 T02110161 10211 20189 53005
KSAN 111651Z VRB06KT 8SM BKN010 21/16 A2995 RMK AO2 SLP140 T02060161
KSAN 111551Z 35005KT 10SM BKN012 20/16 A2994 RMK AO2 SLP139 T02000156
KSAN 111451Z VRB03KT 10SM OVC010 19/16 A2994 RMK AO2 SLP138 T01890156 53009
KSAN 111351Z VRB03KT 10SM OVC011 19/16 A2993 RMK AO2 SLP134 T01890156
KSAN 111251Z 01005KT 10SM OVC011 19/16 A2992 RMK AO2 SLP132 T01890156
KSAN 111151Z VRB05KT 10SM OVC011 19/16 A2991 RMK AO2 SLP129 T01890156 10194 20189 55003
KSAN 111051Z 36005KT 10SM OVC011 19/16 A2991 RMK AO2 SLP128 T01940161
KSAN 110951Z 33005KT 10SM OVC012 19/16 A2992 RMK AO2 SLP131 T01890161
KSAN 110851Z 35005KT 10SM BKN012 19/16 A2992 RMK AO2 SLP133 T01940161 58007
KSAN 110828Z 35005KT 10SM BKN012 19/16 A2993 RMK AO2 T01890161
KSAN 110814Z 34004KT 10SM SCT012 19/16 A2993 RMK AO2 T01890156
KSAN 110751Z 34005KT 10SM BKN011 19/16 A2993 RMK AO2 SLP135 T01890161 402330183
KSAN 110651Z 36003KT 10SM BKN011 19/16 A2995 RMK AO2 SLP140 T01940161
KSAN 110551Z 34004KT 10SM BKN011 19/16 A2994 RMK AO2 SLP139 T01890156 10222 20189 51012
KSAN 110451Z 34003KT 10SM BKN011 19/16 A2994 RMK AO2 SLP138 T01890156
KSAN 110434Z 31004KT 10SM BKN011 19/16 A2994 RMK AO2 T01890156
KSAN 110351Z 32007KT 10SM SCT015 19/16 A2992 RMK AO2 SLP131 T01890156
KSAN 110251Z 30007KT 10SM FEW015 SCT220 19/16 A2991 RMK AO2 SLP127 T01940156 55004
KSAN 110151Z 31006KT 10SM FEW015 SCT220 21/16 A2991 RMK AO2 SLP126 T02110156
KSAN 110051Z 31007KT 10SM FEW015 FEW250 22/16 A2990 RMK AO2 SLP125 T02170156
KSAN 102351Z 30009KT 10SM FEW015 FEW250 22/16 A2992 RMK AO2 SLP131 T02170156 10233 20217 56006
KSAN 102251Z 31010KT 8SM FEW015 22/16 A2992 RMK AO2 SLP132 T02220156
KSAN 102151Z 31010G17KT 10SM FEW015 23/16 A2993 RMK AO2 SLP136 T02280156
KSAN 102051Z 30012KT 10SM FEW015 23/16 A2994 RMK AO2 SLP137 T02280156 56013
KSAN 101951Z 30011KT 10SM FEW013 23/16 A2995 RMK AO2 SLP140 T02330161
KSAN 101851Z 29008KT 10SM FEW012 22/16 A2997 RMK AO2 SLP147 T02220161